sensor_id;sensor_type;location;lat;lon;timestamp;pressure;altitude;pressure_sealevel;temperature;humidity
75538;BME280;64121;48.666;8.114;2023-01-19T00:01:51;99102.56;;;-0.17;83.72
75538;BME280;64121;48.666;8.114;2023-01-19T00:04:16;99108.03;;;-0.17;83.11
75538;BME280;64121;48.666;8.114;2023-01-19T00:06:42;99102.78;;;-0.14;83.15
75538;BME280;64121;48.666;8.114;2023-01-19T00:09:07;99103.78;;;-0.10;83.40
75538;BME280;64121;48.666;8.114;2023-01-19T00:11:34;99109.75;;;-0.08;83.41
75538;BME280;64121;48.666;8.114;2023-01-19T00:13:59;99109.38;;;-0.01;83.49
75538;BME280;64121;48.666;8.114;2023-01-19T00:16:24;99111.59;;;-0.03;83.02
75538;BME280;64121;48.666;8.114;2023-01-19T00:18:50;99104.81;;;-0.06;83.21
75538;BME280;64121;48.666;8.114;2023-01-19T00:21:16;99112.91;;;-0.01;82.12
75538;BME280;64121;48.666;8.114;2023-01-19T00:23:42;99105.53;;;0.00;82.03
75538;BME280;64121;48.666;8.114;2023-01-19T00:26:08;99102.91;;;0.09;81.70
75538;BME280;64121;48.666;8.114;2023-01-19T00:28:35;99106.47;;;0.09;81.84
75538;BME280;64121;48.666;8.114;2023-01-19T00:31:00;99107.78;;;0.12;81.69
75538;BME280;64121;48.666;8.114;2023-01-19T00:33:26;99114.88;;;0.13;81.50
75538;BME280;64121;48.666;8.114;2023-01-19T00:35:52;99106.28;;;0.19;81.60
75538;BME280;64121;48.666;8.114;2023-01-19T00:38:17;99112.03;;;0.18;81.08
75538;BME280;64121;48.666;8.114;2023-01-19T00:40:43;99116.69;;;0.17;80.76
75538;BME280;64121;48.666;8.114;2023-01-19T00:43:08;99119.16;;;0.19;81.33
75538;BME280;64121;48.666;8.114;2023-01-19T00:45:35;99119.72;;;0.16;81.00
75538;BME280;64121;48.666;8.114;2023-01-19T00:48:00;99122.56;;;0.11;81.21
75538;BME280;64121;48.666;8.114;2023-01-19T00:50:27;99117.28;;;0.14;81.29
75538;BME280;64121;48.666;8.114;2023-01-19T00:52:54;99117.22;;;0.19;82.64
75538;BME280;64121;48.666;8.114;2023-01-19T00:55:20;99122.47;;;0.16;81.45
75538;BME280;64121;48.666;8.114;2023-01-19T00:57:45;99118.22;;;0.10;81.21
75538;BME280;64121;48.666;8.114;2023-01-19T01:00:13;99127.88;;;0.21;81.54
75538;BME280;64121;48.666;8.114;2023-01-19T01:02:42;99133.84;;;0.23;81.04
75538;BME280;64121;48.666;8.114;2023-01-19T01:05:09;99133.41;;;0.16;81.17
75538;BME280;64121;48.666;8.114;2023-01-19T01:07:35;99133.41;;;0.16;80.81
75538;BME280;64121;48.666;8.114;2023-01-19T01:10:00;99139.69;;;0.16;80.39
75538;BME280;64121;48.666;8.114;2023-01-19T01:12:26;99135.03;;;0.17;79.84
75538;BME280;64121;48.666;8.114;2023-01-19T01:14:51;99132.94;;;0.27;80.51
75538;BME280;64121;48.666;8.114;2023-01-19T01:17:16;99142.25;;;0.26;80.51
75538;BME280;64121;48.666;8.114;2023-01-19T01:19:43;99141.75;;;0.24;80.20
75538;BME280;64121;48.666;8.114;2023-01-19T01:22:09;99143.38;;;0.25;80.45
75538;BME280;64121;48.666;8.114;2023-01-19T01:24:34;99143.47;;;0.20;80.34
75538;BME280;64121;48.666;8.114;2023-01-19T01:27:00;99138.00;;;0.20;80.36
75538;BME280;64121;48.666;8.114;2023-01-19T01:29:25;99136.38;;;0.19;80.46
75538;BME280;64121;48.666;8.114;2023-01-19T01:31:50;99138.19;;;0.24;79.37
75538;BME280;64121;48.666;8.114;2023-01-19T01:34:16;99142.84;;;0.23;79.38
75538;BME280;64121;48.666;8.114;2023-01-19T01:36:42;99145.38;;;0.20;79.22
75538;BME280;64121;48.666;8.114;2023-01-19T01:39:08;99141.53;;;0.21;79.77
75538;BME280;64121;48.666;8.114;2023-01-19T01:41:33;99132.72;;;0.24;79.18
75538;BME280;64121;48.666;8.114;2023-01-19T01:43:59;99129.25;;;0.18;79.86
75538;BME280;64121;48.666;8.114;2023-01-19T01:46:26;99138.88;;;0.16;79.84
75538;BME280;64121;48.666;8.114;2023-01-19T01:48:56;99141.84;;;0.19;79.39
75538;BME280;64121;48.666;8.114;2023-01-19T01:51:28;99142.41;;;0.16;79.59
75538;BME280;64121;48.666;8.114;2023-01-19T01:54:07;99142.41;;;0.16;79.09
75538;BME280;64121;48.666;8.114;2023-01-19T01:56:36;99137.69;;;0.22;80.51
75538;BME280;64121;48.666;8.114;2023-01-19T01:59:03;99141.09;;;0.14;79.63
75538;BME280;64121;48.666;8.114;2023-01-19T02:01:29;99147.69;;;0.13;78.97
75538;BME280;64121;48.666;8.114;2023-01-19T02:03:55;99146.19;;;0.20;80.10
75538;BME280;64121;48.666;8.114;2023-01-19T02:06:21;99143.66;;;0.24;79.11
75538;BME280;64121;48.666;8.114;2023-01-19T02:08:52;99146.19;;;0.20;79.28
75538;BME280;64121;48.666;8.114;2023-01-19T02:11:21;99145.66;;;0.18;79.54
75538;BME280;64121;48.666;8.114;2023-01-19T02:13:47;99142.03;;;0.23;78.73
75538;BME280;64121;48.666;8.114;2023-01-19T02:16:14;99143.97;;;0.22;79.16
75538;BME280;64121;48.666;8.114;2023-01-19T02:18:40;99140.44;;;0.22;78.75
75538;BME280;64121;48.666;8.114;2023-01-19T02:21:09;99147.22;;;0.24;78.31
75538;BME280;64121;48.666;8.114;2023-01-19T02:23:42;99145.59;;;0.23;77.94
75538;BME280;64121;48.666;8.114;2023-01-19T02:26:09;99148.03;;;0.25;77.74
75538;BME280;64121;48.666;8.114;2023-01-19T02:28:39;99149.66;;;0.26;78.06
75538;BME280;64121;48.666;8.114;2023-01-19T02:31:05;99155.22;;;0.21;78.36
75538;BME280;64121;48.666;8.114;2023-01-19T02:33:31;99144.47;;;0.24;78.84
75538;BME280;64121;48.666;8.114;2023-01-19T02:35:56;99141.75;;;0.24;77.92
75538;BME280;64121;48.666;8.114;2023-01-19T02:38:24;99148.53;;;0.27;77.79
75538;BME280;64121;48.666;8.114;2023-01-19T02:40:53;99148.31;;;0.23;77.42
75538;BME280;64121;48.666;8.114;2023-01-19T02:43:19;99152.38;;;0.26;77.85
75538;BME280;64121;48.666;8.114;2023-01-19T02:45:45;99147.00;;;0.21;77.80
75538;BME280;64121;48.666;8.114;2023-01-19T02:48:11;99146.50;;;0.19;77.66
75538;BME280;64121;48.666;8.114;2023-01-19T02:50:41;99150.03;;;0.19;77.72
75538;BME280;64121;48.666;8.114;2023-01-19T02:53:27;99156.31;;;0.20;77.12
75538;BME280;64121;48.666;8.114;2023-01-19T02:56:04;99150.41;;;0.13;77.97
75538;BME280;64121;48.666;8.114;2023-01-19T02:58:32;99144.94;;;0.13;77.66
75538;BME280;64121;48.666;8.114;2023-01-19T03:01:08;99145.75;;;0.13;78.02
75538;BME280;64121;48.666;8.114;2023-01-19T03:03:44;99143.22;;;0.17;77.64
75538;BME280;64121;48.666;8.114;2023-01-19T03:06:21;99139.28;;;0.09;78.01
75538;BME280;64121;48.666;8.114;2023-01-19T03:08:55;99137.66;;;0.08;77.87
75538;BME280;64121;48.666;8.114;2023-01-19T03:11:29;99142.50;;;0.11;78.11
75538;BME280;64121;48.666;8.114;2023-01-19T03:14:00;99148.91;;;0.07;77.74
75538;BME280;64121;48.666;8.114;2023-01-19T03:16:34;99141.81;;;0.06;78.22
75538;BME280;64121;48.666;8.114;2023-01-19T03:19:07;99139.56;;;0.08;78.32
75538;BME280;64121;48.666;8.114;2023-01-19T03:21:35;99140.09;;;0.10;78.00
75538;BME280;64121;48.666;8.114;2023-01-19T03:24:03;99148.28;;;0.10;78.53
75538;BME280;64121;48.666;8.114;2023-01-19T03:26:36;99144.25;;;0.07;79.00
75538;BME280;64121;48.666;8.114;2023-01-19T03:29:04;99146.47;;;0.05;78.73
75538;BME280;64121;48.666;8.114;2023-01-19T03:31:32;99145.97;;;0.03;79.28
75538;BME280;64121;48.666;8.114;2023-01-19T03:34:02;99152.53;;;0.02;79.59
75538;BME280;64121;48.666;8.114;2023-01-19T03:36:30;99146.75;;;0.04;79.55
75538;BME280;64121;48.666;8.114;2023-01-19T03:38:57;99145.06;;;0.08;79.78
75538;BME280;64121;48.666;8.114;2023-01-19T03:41:26;99151.94;;;0.05;79.89
75538;BME280;64121;48.666;8.114;2023-01-19T03:43:54;99160.94;;;0.06;79.97
75538;BME280;64121;48.666;8.114;2023-01-19T03:46:20;99149.19;;;0.05;79.58
75538;BME280;64121;48.666;8.114;2023-01-19T03:48:46;99145.72;;;-0.01;79.60
75538;BME280;64121;48.666;8.114;2023-01-19T03:51:12;99148.53;;;-0.06;79.57
75538;BME280;64121;48.666;8.114;2023-01-19T03:53:38;99151.88;;;-0.09;79.68
75538;BME280;64121;48.666;8.114;2023-01-19T03:56:04;99151.38;;;-0.11;79.55
75538;BME280;64121;48.666;8.114;2023-01-19T03:58:30;99153.69;;;-0.18;79.91
75538;BME280;64121;48.666;8.114;2023-01-19T04:00:57;99157.81;;;-0.20;79.46
75538;BME280;64121;48.666;8.114;2023-01-19T04:03:22;99157.50;;;-0.19;79.23
75538;BME280;64121;48.666;8.114;2023-01-19T04:05:47;99162.25;;;-0.24;79.12
75538;BME280;64121;48.666;8.114;2023-01-19T04:08:13;99168.41;;;-0.33;79.92
75538;BME280;64121;48.666;8.114;2023-01-19T04:10:38;99163.25;;;-0.34;80.29
75538;BME280;64121;48.666;8.114;2023-01-19T04:13:04;99162.19;;;-0.38;79.86
75538;BME280;64121;48.666;8.114;2023-01-19T04:15:30;99158.66;;;-0.39;80.76
75538;BME280;64121;48.666;8.114;2023-01-19T04:17:58;99163.38;;;-0.44;80.42
75538;BME280;64121;48.666;8.114;2023-01-19T04:20:24;99162.06;;;-0.47;80.62
75538;BME280;64121;48.666;8.114;2023-01-19T04:22:49;99158.31;;;-0.51;81.08
75538;BME280;64121;48.666;8.114;2023-01-19T04:25:14;99165.19;;;-0.53;80.83
75538;BME280;64121;48.666;8.114;2023-01-19T04:27:40;99165.22;;;-0.58;80.93
75538;BME280;64121;48.666;8.114;2023-01-19T04:30:07;99175.34;;;-0.59;80.59
75538;BME280;64121;48.666;8.114;2023-01-19T04:32:32;99179.13;;;-0.55;80.61
75538;BME280;64121;48.666;8.114;2023-01-19T04:34:59;99173.66;;;-0.55;80.86
75538;BME280;64121;48.666;8.114;2023-01-19T04:37:24;99178.16;;;-0.64;81.45
75538;BME280;64121;48.666;8.114;2023-01-19T04:39:50;99180.59;;;-0.63;80.99
75538;BME280;64121;48.666;8.114;2023-01-19T04:42:15;99185.03;;;-0.67;81.00
75538;BME280;64121;48.666;8.114;2023-01-19T04:44:40;99181.78;;;-0.69;81.13
75538;BME280;64121;48.666;8.114;2023-01-19T04:47:06;99182.88;;;-0.70;80.96
75538;BME280;64121;48.666;8.114;2023-01-19T04:49:31;99176.53;;;-0.65;81.43
75538;BME280;64121;48.666;8.114;2023-01-19T04:51:58;99180.97;;;-0.69;81.16
75538;BME280;64121;48.666;8.114;2023-01-19T04:54:23;99184.28;;;-0.72;81.07
75538;BME280;64121;48.666;8.114;2023-01-19T04:56:49;99185.41;;;-0.73;81.34
75538;BME280;64121;48.666;8.114;2023-01-19T04:59:14;99188.41;;;-0.75;80.90
75538;BME280;64121;48.666;8.114;2023-01-19T05:01:39;99194.53;;;-0.64;80.86
75538;BME280;64121;48.666;8.114;2023-01-19T05:04:06;99197.16;;;-0.54;79.65
75538;BME280;64121;48.666;8.114;2023-01-19T05:06:31;99197.59;;;-0.47;79.59
75538;BME280;64121;48.666;8.114;2023-01-19T05:08:58;99190.50;;;-0.48;79.92
75538;BME280;64121;48.666;8.114;2023-01-19T05:11:23;99192.34;;;-0.43;79.33
75538;BME280;64121;48.666;8.114;2023-01-19T05:13:49;99194.47;;;-0.40;79.27
75538;BME280;64121;48.666;8.114;2023-01-19T05:16:14;99195.56;;;-0.41;79.57
75538;BME280;64121;48.666;8.114;2023-01-19T05:18:39;99184.84;;;-0.38;79.14
75538;BME280;64121;48.666;8.114;2023-01-19T05:21:05;99195.22;;;-0.35;79.45
75538;BME280;64121;48.666;8.114;2023-01-19T05:23:31;99207.41;;;-0.27;78.71
75538;BME280;64121;48.666;8.114;2023-01-19T05:25:59;99204.25;;;-0.34;78.89
75538;BME280;64121;48.666;8.114;2023-01-19T05:28:24;99212.44;;;-0.34;79.18
75538;BME280;64121;48.666;8.114;2023-01-19T05:30:49;99202.66;;;-0.40;79.37
75538;BME280;64121;48.666;8.114;2023-01-19T05:33:15;99204.28;;;-0.39;79.92
75538;BME280;64121;48.666;8.114;2023-01-19T05:35:40;99212.78;;;-0.41;79.38
75538;BME280;64121;48.666;8.114;2023-01-19T05:38:05;99210.88;;;-0.40;79.68
75538;BME280;64121;48.666;8.114;2023-01-19T05:40:31;99208.94;;;-0.40;79.50
75538;BME280;64121;48.666;8.114;2023-01-19T05:42:57;99216.19;;;-0.30;79.89
75538;BME280;64121;48.666;8.114;2023-01-19T05:45:23;99196.91;;;-0.39;79.31
75538;BME280;64121;48.666;8.114;2023-01-19T05:47:48;99210.06;;;-0.41;79.48
75538;BME280;64121;48.666;8.114;2023-01-19T05:50:14;99201.00;;;-0.36;79.55
75538;BME280;64121;48.666;8.114;2023-01-19T05:52:39;99198.97;;;-0.31;79.01
75538;BME280;64121;48.666;8.114;2023-01-19T05:55:05;99199.28;;;-0.32;78.84
75538;BME280;64121;48.666;8.114;2023-01-19T05:57:31;99206.06;;;-0.29;78.63
75538;BME280;64121;48.666;8.114;2023-01-19T05:59:58;99203.97;;;-0.19;79.54
75538;BME280;64121;48.666;8.114;2023-01-19T06:02:23;99213.03;;;-0.18;78.71
75538;BME280;64121;48.666;8.114;2023-01-19T06:04:48;99206.44;;;-0.17;78.47
75538;BME280;64121;48.666;8.114;2023-01-19T06:07:13;99213.22;;;-0.15;78.32
75538;BME280;64121;48.666;8.114;2023-01-19T06:09:39;99212.34;;;-0.10;78.26
75538;BME280;64121;48.666;8.114;2023-01-19T06:12:05;99213.22;;;-0.15;77.94
75538;BME280;64121;48.666;8.114;2023-01-19T06:14:30;99218.31;;;-0.08;76.92
75538;BME280;64121;48.666;8.114;2023-01-19T06:16:57;99225.09;;;-0.06;77.92
75538;BME280;64121;48.666;8.114;2023-01-19T06:19:22;99225.41;;;-0.07;77.85
75538;BME280;64121;48.666;8.114;2023-01-19T06:21:48;99230.66;;;-0.11;77.91
75538;BME280;64121;48.666;8.114;2023-01-19T06:24:14;99224.38;;;-0.11;77.67
75538;BME280;64121;48.666;8.114;2023-01-19T06:26:39;99229.75;;;-0.06;77.68
75538;BME280;64121;48.666;8.114;2023-01-19T06:29:04;99233.16;;;0.05;77.20
75538;BME280;64121;48.666;8.114;2023-01-19T06:31:30;99242.25;;;0.00;77.40
75538;BME280;64121;48.666;8.114;2023-01-19T06:33:56;99245.00;;;0.00;78.49
75538;BME280;64121;48.666;8.114;2023-01-19T06:36:22;99238.41;;;0.01;77.88
75538;BME280;64121;48.666;8.114;2023-01-19T06:38:47;99235.97;;;-0.01;77.79
75538;BME280;64121;48.666;8.114;2023-01-19T06:41:12;99241.66;;;0.03;77.78
75538;BME280;64121;48.666;8.114;2023-01-19T06:43:38;99238.84;;;0.08;77.75
75538;BME280;64121;48.666;8.114;2023-01-19T06:46:03;99239.66;;;0.09;77.69
75538;BME280;64121;48.666;8.114;2023-01-19T06:48:28;99251.31;;;0.14;78.15
75538;BME280;64121;48.666;8.114;2023-01-19T06:50:55;99238.75;;;0.13;78.76
75538;BME280;64121;48.666;8.114;2023-01-19T06:53:20;99245.53;;;0.16;78.07
75538;BME280;64121;48.666;8.114;2023-01-19T06:55:46;99245.03;;;0.14;78.29
75538;BME280;64121;48.666;8.114;2023-01-19T06:58:11;99247.31;;;0.25;78.83
75538;BME280;64121;48.666;8.114;2023-01-19T07:00:37;99244.38;;;0.22;78.41
75538;BME280;64121;48.666;8.114;2023-01-19T07:03:04;99247.72;;;0.19;77.98
75538;BME280;64121;48.666;8.114;2023-01-19T07:05:29;99242.66;;;0.26;77.91
75538;BME280;64121;48.666;8.114;2023-01-19T07:07:56;99254.91;;;0.28;78.30
75538;BME280;64121;48.666;8.114;2023-01-19T07:10:22;99251.78;;;0.21;78.34
75538;BME280;64121;48.666;8.114;2023-01-19T07:12:47;99254.19;;;0.23;78.06
75538;BME280;64121;48.666;8.114;2023-01-19T07:15:13;99243.78;;;0.25;77.92
75538;BME280;64121;48.666;8.114;2023-01-19T07:17:39;99258.47;;;0.29;78.16
75538;BME280;64121;48.666;8.114;2023-01-19T07:20:06;99254.81;;;0.34;78.31
75538;BME280;64121;48.666;8.114;2023-01-19T07:22:31;99256.97;;;0.37;77.74
75538;BME280;64121;48.666;8.114;2023-01-19T07:24:58;99264.81;;;0.43;77.46
75538;BME280;64121;48.666;8.114;2023-01-19T07:27:24;99253.16;;;0.38;77.62
75538;BME280;64121;48.666;8.114;2023-01-19T07:29:49;99266.53;;;0.39;78.70
75538;BME280;64121;48.666;8.114;2023-01-19T07:32:14;99270.38;;;0.38;78.09
75538;BME280;64121;48.666;8.114;2023-01-19T07:34:40;99266.59;;;0.34;78.32
75538;BME280;64121;48.666;8.114;2023-01-19T07:37:05;99266.53;;;0.39;78.34
75538;BME280;64121;48.666;8.114;2023-01-19T07:39:30;99263.47;;;0.41;78.23
75538;BME280;64121;48.666;8.114;2023-01-19T07:41:57;99268.44;;;0.39;78.96
75538;BME280;64121;48.666;8.114;2023-01-19T07:44:22;99266.22;;;0.54;79.31
75538;BME280;64121;48.666;8.114;2023-01-19T07:46:48;99269.06;;;0.49;78.17
75538;BME280;64121;48.666;8.114;2023-01-19T07:49:13;99268.66;;;0.42;78.33
75538;BME280;64121;48.666;8.114;2023-01-19T07:51:38;99267.25;;;0.45;78.68
75538;BME280;64121;48.666;8.114;2023-01-19T07:54:04;99270.78;;;0.45;78.55
75538;BME280;64121;48.666;8.114;2023-01-19T07:56:29;99279.72;;;0.51;77.86
75538;BME280;64121;48.666;8.114;2023-01-19T07:58:56;99283.09;;;0.62;77.74
75538;BME280;64121;48.666;8.114;2023-01-19T08:01:21;99292.94;;;0.63;77.09
75538;BME280;64121;48.666;8.114;2023-01-19T08:03:47;99297.69;;;0.57;77.93
75538;BME280;64121;48.666;8.114;2023-01-19T08:06:18;99295.84;;;0.52;78.09
75538;BME280;64121;48.666;8.114;2023-01-19T08:08:44;99298.16;;;0.45;78.63
75538;BME280;64121;48.666;8.114;2023-01-19T08:11:09;99295.72;;;0.44;78.88
75538;BME280;64121;48.666;8.114;2023-01-19T08:13:34;99296.53;;;0.44;78.63
75538;BME280;64121;48.666;8.114;2023-01-19T08:16:01;99299.31;;;0.58;78.89
75538;BME280;64121;48.666;8.114;2023-01-19T08:18:26;99303.22;;;0.52;79.03
75538;BME280;64121;48.666;8.114;2023-01-19T08:20:52;99303.94;;;0.44;79.48
75538;BME280;64121;48.666;8.114;2023-01-19T08:23:17;99303.13;;;0.43;79.30
75538;BME280;64121;48.666;8.114;2023-01-19T08:25:42;99302.00;;;0.44;80.02
75538;BME280;64121;48.666;8.114;2023-01-19T08:28:08;99305.97;;;0.52;78.69
75538;BME280;64121;48.666;8.114;2023-01-19T08:30:34;99314.78;;;0.49;78.84
75538;BME280;64121;48.666;8.114;2023-01-19T08:33:01;99308.50;;;0.48;79.10
75538;BME280;64121;48.666;8.114;2023-01-19T08:35:26;99313.56;;;0.55;78.73
75538;BME280;64121;48.666;8.114;2023-01-19T08:37:51;99320.41;;;0.57;77.91
75538;BME280;64121;48.666;8.114;2023-01-19T08:40:17;99321.94;;;0.64;78.42
75538;BME280;64121;48.666;8.114;2023-01-19T08:42:42;99319.59;;;0.57;78.52
75538;BME280;64121;48.666;8.114;2023-01-19T08:45:08;99318.47;;;0.58;78.63
75538;BME280;64121;48.666;8.114;2023-01-19T08:47:33;99329.44;;;0.58;78.42
75538;BME280;64121;48.666;8.114;2023-01-19T08:50:00;99334.22;;;0.66;77.43
75538;BME280;64121;48.666;8.114;2023-01-19T08:52:25;99337.25;;;0.65;77.85
75538;BME280;64121;48.666;8.114;2023-01-19T08:54:51;99340.78;;;0.65;78.76
75538;BME280;64121;48.666;8.114;2023-01-19T08:57:16;99339.69;;;0.66;78.63
75538;BME280;64121;48.666;8.114;2023-01-19T08:59:41;99339.25;;;0.59;78.45
75538;BME280;64121;48.666;8.114;2023-01-19T09:02:08;99348.19;;;0.65;78.63
75538;BME280;64121;48.666;8.114;2023-01-19T09:04:34;99347.59;;;0.68;78.10
75538;BME280;64121;48.666;8.114;2023-01-19T09:07:00;99348.69;;;0.67;77.28
75538;BME280;64121;48.666;8.114;2023-01-19T09:09:26;99345.56;;;0.73;77.83
75538;BME280;64121;48.666;8.114;2023-01-19T09:11:52;99346.38;;;0.74;77.53
75538;BME280;64121;48.666;8.114;2023-01-19T09:14:17;99333.75;;;0.78;77.94
75538;BME280;64121;48.666;8.114;2023-01-19T09:16:43;99342.66;;;0.83;78.40
75538;BME280;64121;48.666;8.114;2023-01-19T09:19:08;99337.03;;;0.94;78.07
75538;BME280;64121;48.666;8.114;2023-01-19T09:21:33;99344.00;;;0.86;77.56
75538;BME280;64121;48.666;8.114;2023-01-19T09:24:00;99348.34;;;0.87;77.73
75538;BME280;64121;48.666;8.114;2023-01-19T09:26:25;99341.56;;;0.84;77.78
75538;BME280;64121;48.666;8.114;2023-01-19T09:28:51;99343.38;;;0.89;78.25
75538;BME280;64121;48.666;8.114;2023-01-19T09:31:16;99343.69;;;0.87;78.18
75538;BME280;64121;48.666;8.114;2023-01-19T09:33:41;99347.44;;;0.91;78.39
75538;BME280;64121;48.666;8.114;2023-01-19T09:36:07;99343.31;;;0.94;77.97
75538;BME280;64121;48.666;8.114;2023-01-19T09:38:32;99342.22;;;1.09;77.79
75538;BME280;64121;48.666;8.114;2023-01-19T09:40:59;99344.28;;;1.17;77.70
75538;BME280;64121;48.666;8.114;2023-01-19T09:43:34;99344.78;;;1.19;77.84
75538;BME280;64121;48.666;8.114;2023-01-19T09:46:02;99340.81;;;1.25;77.21
75538;BME280;64121;48.666;8.114;2023-01-19T09:48:38;99343.69;;;1.34;76.30
75538;BME280;64121;48.666;8.114;2023-01-19T09:51:11;99332.09;;;1.37;77.29
75538;BME280;64121;48.666;8.114;2023-01-19T09:53:58;99335.03;;;1.40;76.64
75538;BME280;64121;48.666;8.114;2023-01-19T09:56:29;99338.72;;;1.49;75.61
75538;BME280;64121;48.666;8.114;2023-01-19T09:58:55;99343.09;;;1.50;75.47
75538;BME280;64121;48.666;8.114;2023-01-19T10:01:31;99339.41;;;1.55;75.67
75538;BME280;64121;48.666;8.114;2023-01-19T10:04:10;99344.09;;;1.68;74.91
75538;BME280;64121;48.666;8.114;2023-01-19T10:06:41;99341.63;;;1.67;74.55
75538;BME280;64121;48.666;8.114;2023-01-19T10:09:12;99340.72;;;1.71;74.46
75538;BME280;64121;48.666;8.114;2023-01-19T10:11:47;99340.94;;;1.75;74.20
75538;BME280;64121;48.666;8.114;2023-01-19T10:14:19;99340.19;;;1.83;75.09
75538;BME280;64121;48.666;8.114;2023-01-19T10:16:52;99339.69;;;1.81;74.16
75538;BME280;64121;48.666;8.114;2023-01-19T10:19:24;99346.00;;;1.81;74.03
75538;BME280;64121;48.666;8.114;2023-01-19T10:21:52;99337.13;;;1.85;74.35
75538;BME280;64121;48.666;8.114;2023-01-19T10:24:22;99345.91;;;1.87;74.63
75538;BME280;64121;48.666;8.114;2023-01-19T10:26:52;99346.16;;;1.99;73.28
75538;BME280;64121;48.666;8.114;2023-01-19T10:29:21;99345.16;;;1.95;72.88
75538;BME280;64121;48.666;8.114;2023-01-19T10:31:51;99347.59;;;1.96;72.98
75538;BME280;64121;48.666;8.114;2023-01-19T10:34:16;99344.03;;;1.96;74.45
75538;BME280;64121;48.666;8.114;2023-01-19T10:36:43;99341.50;;;1.99;73.74
75538;BME280;64121;48.666;8.114;2023-01-19T10:39:11;99347.22;;;1.89;72.67
75538;BME280;64121;48.666;8.114;2023-01-19T10:41:41;99339.88;;;1.98;73.56
75538;BME280;64121;48.666;8.114;2023-01-19T10:44:08;99339.06;;;1.98;73.27
75538;BME280;64121;48.666;8.114;2023-01-19T10:46:40;99344.53;;;1.98;73.32
75538;BME280;64121;48.666;8.114;2023-01-19T10:49:21;99341.69;;;2.03;73.43
75538;BME280;64121;48.666;8.114;2023-01-19T10:51:47;99347.56;;;2.24;72.98
75538;BME280;64121;48.666;8.114;2023-01-19T10:54:12;99343.44;;;2.35;73.19
75538;BME280;64121;48.666;8.114;2023-01-19T10:56:38;99352.50;;;2.58;72.90
75538;BME280;64121;48.666;8.114;2023-01-19T10:59:05;99351.50;;;2.54;72.64
75538;BME280;64121;48.666;8.114;2023-01-19T11:01:32;99356.56;;;2.60;72.98
75538;BME280;64121;48.666;8.114;2023-01-19T11:03:57;99355.56;;;2.56;73.48
75538;BME280;64121;48.666;8.114;2023-01-19T11:06:25;99350.72;;;2.39;72.61
75538;BME280;64121;48.666;8.114;2023-01-19T11:08:52;99350.28;;;2.24;72.50
75538;BME280;64121;48.666;8.114;2023-01-19T11:11:24;99352.72;;;2.25;73.39
75538;BME280;64121;48.666;8.114;2023-01-19T11:14:08;99343.28;;;2.18;72.85
75538;BME280;64121;48.666;8.114;2023-01-19T11:16:36;99347.56;;;2.24;73.96
75538;BME280;64121;48.666;8.114;2023-01-19T11:19:01;99342.97;;;2.19;73.60
75538;BME280;64121;48.666;8.114;2023-01-19T11:21:29;99351.16;;;2.33;73.08
75538;BME280;64121;48.666;8.114;2023-01-19T11:23:56;99352.72;;;2.25;72.88
75538;BME280;64121;48.666;8.114;2023-01-19T11:26:25;99347.25;;;2.25;73.74
75538;BME280;64121;48.666;8.114;2023-01-19T11:28:52;99343.75;;;2.33;73.34
75538;BME280;64121;48.666;8.114;2023-01-19T11:31:29;99349.25;;;2.33;73.03
75538;BME280;64121;48.666;8.114;2023-01-19T11:33:58;99348.78;;;2.40;74.06
75538;BME280;64121;48.666;8.114;2023-01-19T11:36:25;99345.44;;;2.43;73.40
75538;BME280;64121;48.666;8.114;2023-01-19T11:38:53;99348.94;;;2.57;73.98
75538;BME280;64121;48.666;8.114;2023-01-19T11:41:20;99353.84;;;2.60;73.12
75538;BME280;64121;48.666;8.114;2023-01-19T11:43:47;99350.31;;;2.68;73.67
75538;BME280;64121;48.666;8.114;2023-01-19T11:46:14;99349.16;;;2.61;72.56
75538;BME280;64121;48.666;8.114;2023-01-19T11:48:44;99351.09;;;2.60;73.23
75538;BME280;64121;48.666;8.114;2023-01-19T11:51:14;99346.81;;;2.54;72.71
75538;BME280;64121;48.666;8.114;2023-01-19T11:53:42;99341.13;;;2.51;73.66
75538;BME280;64121;48.666;8.114;2023-01-19T11:56:13;99342.44;;;2.53;73.13
75538;BME280;64121;48.666;8.114;2023-01-19T11:58:40;99336.72;;;2.63;73.11
75538;BME280;64121;48.666;8.114;2023-01-19T12:01:15;99339.56;;;2.58;72.82
75538;BME280;64121;48.666;8.114;2023-01-19T12:03:44;99334.41;;;2.57;73.12
75538;BME280;64121;48.666;8.114;2023-01-19T12:06:15;99331.66;;;2.57;73.11
75538;BME280;64121;48.666;8.114;2023-01-19T12:08:44;99330.41;;;2.63;73.21
75538;BME280;64121;48.666;8.114;2023-01-19T12:11:16;99333.22;;;2.71;73.72
75538;BME280;64121;48.666;8.114;2023-01-19T12:13:44;99324.44;;;2.61;73.61
75538;BME280;64121;48.666;8.114;2023-01-19T12:16:12;99329.34;;;2.72;72.15
75538;BME280;64121;48.666;8.114;2023-01-19T12:18:45;99330.47;;;2.71;72.58
75538;BME280;64121;48.666;8.114;2023-01-19T12:21:13;99330.97;;;2.73;71.84
75538;BME280;64121;48.666;8.114;2023-01-19T12:23:44;99321.03;;;2.86;72.99
75538;BME280;64121;48.666;8.114;2023-01-19T12:26:24;99330.22;;;3.13;72.76
75538;BME280;64121;48.666;8.114;2023-01-19T12:28:51;99330.03;;;3.09;72.32
75538;BME280;64121;48.666;8.114;2023-01-19T12:31:18;99319.69;;;3.06;72.55
75538;BME280;64121;48.666;8.114;2023-01-19T12:33:44;99323.31;;;2.93;72.37
75538;BME280;64121;48.666;8.114;2023-01-19T12:36:29;99321.50;;;2.80;71.97
75538;BME280;64121;48.666;8.114;2023-01-19T12:39:00;99314.31;;;2.70;72.71
75538;BME280;64121;48.666;8.114;2023-01-19T12:41:28;99327.41;;;2.51;73.02
75538;BME280;64121;48.666;8.114;2023-01-19T12:44:18;99316.47;;;2.59;72.57
75538;BME280;64121;48.666;8.114;2023-01-19T12:46:45;99316.63;;;2.54;73.91
75538;BME280;64121;48.666;8.114;2023-01-19T12:49:20;99332.41;;;2.49;74.09
75538;BME280;64121;48.666;8.114;2023-01-19T12:51:48;99326.41;;;2.47;74.34
75538;BME280;64121;48.666;8.114;2023-01-19T12:54:27;99321.59;;;2.52;74.34
75538;BME280;64121;48.666;8.114;2023-01-19T12:56:57;99329.72;;;2.35;74.43
75538;BME280;64121;48.666;8.114;2023-01-19T12:59:25;99329.84;;;2.30;74.34
75538;BME280;64121;48.666;8.114;2023-01-19T13:08:18;99321.44;;;2.12;74.21
75538;BME280;64121;48.666;8.114;2023-01-19T13:11:18;99322.44;;;2.17;74.38
75538;BME280;64121;48.666;8.114;2023-01-19T13:16:59;99324.00;;;2.09;75.96
75538;BME280;64121;48.666;8.114;2023-01-19T13:19:37;99329.81;;;2.07;75.88